createdAt,value
2018-08-04T00:01:37.446Z,4.37
2018-08-04T00:04:05.901Z,4.63
2018-08-04T00:06:35.581Z,5.60
2018-08-04T00:09:06.446Z,3.73
2018-08-04T00:11:34.807Z,5.00
2018-08-04T00:14:03.320Z,4.70
2018-08-04T00:16:31.684Z,7.60
2018-08-04T00:19:00.028Z,6.40
2018-08-04T00:21:28.370Z,5.57
2018-08-04T00:23:56.717Z,15.23
2018-08-04T00:26:29.225Z,3.03
2018-08-04T00:28:58.447Z,4.80
2018-08-04T00:31:26.980Z,7.47
2018-08-04T00:33:55.418Z,5.03
2018-08-04T00:36:23.797Z,6.50
2018-08-04T00:38:52.145Z,4.00
2018-08-04T00:41:21.775Z,4.60
2018-08-04T00:43:51.024Z,4.53
2018-08-04T00:46:22.373Z,5.70
2018-08-04T00:48:51.772Z,6.23
2018-08-04T00:51:21.128Z,3.90
2018-08-04T00:53:50.316Z,6.00
2018-08-04T00:56:20.543Z,4.90
2018-08-04T00:58:50.764Z,5.73
2018-08-04T01:01:19.136Z,3.10
2018-08-04T01:03:47.540Z,3.73
2018-08-04T01:06:15.924Z,4.73
2018-08-04T01:08:44.313Z,3.80
2018-08-04T01:11:12.720Z,4.97
2018-08-04T01:13:41.158Z,7.23
2018-08-04T01:16:09.614Z,6.67
2018-08-04T01:18:38.023Z,7.23
2018-08-04T01:21:06.400Z,6.93
2018-08-04T01:23:34.955Z,4.77
2018-08-04T01:26:03.364Z,6.23
2018-08-04T01:28:31.859Z,3.97
2018-08-04T01:31:00.334Z,4.47
2018-08-04T01:33:28.748Z,6.37
2018-08-04T01:35:57.192Z,3.40
2018-08-04T01:38:25.596Z,5.23
2018-08-04T01:40:53.986Z,5.80
2018-08-04T01:43:22.395Z,3.23
2018-08-04T01:45:50.803Z,5.63
2018-08-04T01:48:19.184Z,6.30
2018-08-04T01:50:47.622Z,4.50
2018-08-04T01:53:16.092Z,3.77
2018-08-04T01:55:44.496Z,4.67
2018-08-04T01:58:12.871Z,4.00
2018-08-04T02:00:41.249Z,4.67
2018-08-04T02:03:09.562Z,4.07
2018-08-04T02:05:37.939Z,5.17
2018-08-04T02:08:06.421Z,4.37
2018-08-04T02:10:34.796Z,3.90
2018-08-04T02:13:03.122Z,5.60
2018-08-04T02:15:31.555Z,4.43
2018-08-04T02:17:59.927Z,6.73
2018-08-04T02:20:28.261Z,3.83
2018-08-04T02:22:56.664Z,3.97
2018-08-04T02:25:25.040Z,4.77
2018-08-04T02:27:53.413Z,5.93
2018-08-04T02:30:21.760Z,5.80
2018-08-04T02:32:50.140Z,5.30
2018-08-04T02:35:18.522Z,3.57
2018-08-04T02:37:46.892Z,4.97
2018-08-04T02:40:15.277Z,5.43
2018-08-04T02:42:43.626Z,10.23
2018-08-04T02:45:11.969Z,4.13
2018-08-04T02:47:40.319Z,7.53
2018-08-04T02:50:09.269Z,4.50
2018-08-04T02:52:37.644Z,4.63
2018-08-04T02:55:06.201Z,3.80
2018-08-04T02:57:34.529Z,4.33
2018-08-04T03:00:02.890Z,3.30
2018-08-04T03:02:31.266Z,6.20
2018-08-04T03:04:59.639Z,4.00
2018-08-04T03:07:27.988Z,3.53
2018-08-04T03:09:56.336Z,3.87
2018-08-04T03:12:24.720Z,4.23
2018-08-04T03:14:53.346Z,3.67
2018-08-04T03:17:21.709Z,6.03
2018-08-04T03:19:50.104Z,3.90
2018-08-04T03:22:18.505Z,7.07
2018-08-04T03:24:46.882Z,3.47
2018-08-04T03:27:15.265Z,5.63
2018-08-04T03:29:43.634Z,4.30
2018-08-04T03:32:11.956Z,5.53
2018-08-04T03:34:40.421Z,4.60
2018-08-04T03:37:09.157Z,5.83
2018-08-04T03:39:37.713Z,4.23
2018-08-04T03:42:06.524Z,4.03
2018-08-04T03:44:35.188Z,3.63
2018-08-04T03:47:03.929Z,3.93
2018-08-04T03:49:32.518Z,5.10
2018-08-04T03:52:01.198Z,4.07
2018-08-04T03:54:30.020Z,3.80
2018-08-04T03:56:58.651Z,8.80
2018-08-04T03:59:27.226Z,6.03
2018-08-04T04:55:54.858Z,8.03
2018-08-04T04:58:24.252Z,5.30
2018-08-04T05:00:53.784Z,5.43
2018-08-04T05:03:23.676Z,4.87
2018-08-04T05:05:53.931Z,5.27
2018-08-04T05:08:23.757Z,3.83
2018-08-04T05:10:53.293Z,5.30
2018-08-04T05:13:22.812Z,5.13
2018-08-04T05:15:51.139Z,4.73
2018-08-04T05:18:19.521Z,4.83
2018-08-04T05:20:47.899Z,5.37
2018-08-04T05:23:16.303Z,3.73
2018-08-04T05:25:44.784Z,5.53
2018-08-04T05:28:13.140Z,5.53
2018-08-04T05:30:41.560Z,7.00
2018-08-04T05:33:09.910Z,5.40
2018-08-04T05:35:38.344Z,3.60
2018-08-04T05:38:06.728Z,3.10
2018-08-04T05:40:35.105Z,3.83
2018-08-04T05:43:03.485Z,6.70
2018-08-04T05:45:31.898Z,3.43
2018-08-04T05:48:00.329Z,8.63
2018-08-04T05:50:28.768Z,8.67
2018-08-04T05:52:57.147Z,3.63
2018-08-04T05:55:25.499Z,3.93
2018-08-04T05:57:53.869Z,6.03
2018-08-04T06:00:22.246Z,5.17
2018-08-04T06:02:50.617Z,5.27
2018-08-04T06:05:19.008Z,4.37
2018-08-04T06:07:47.380Z,2.93
2018-08-04T06:10:15.754Z,6.60
2018-08-04T06:12:44.078Z,5.00
2018-08-04T06:15:12.483Z,6.57
2018-08-04T06:17:40.829Z,6.37
2018-08-04T06:20:09.226Z,3.97
2018-08-04T06:22:37.575Z,4.43
2018-08-04T06:25:05.940Z,8.13
2018-08-04T06:27:34.321Z,4.03
2018-08-04T06:30:02.729Z,4.20
2018-08-04T06:32:31.090Z,6.83
2018-08-04T06:34:59.484Z,4.57
2018-08-04T06:37:27.864Z,4.10
2018-08-04T06:39:56.411Z,4.20
2018-08-04T06:42:24.790Z,4.80
2018-08-04T06:44:53.123Z,4.63
2018-08-04T06:47:21.467Z,5.23
2018-08-04T06:49:49.877Z,3.90
2018-08-04T06:52:18.260Z,5.40
2018-08-04T06:54:46.577Z,3.08
2018-08-04T06:57:14.928Z,3.12
2018-08-04T06:59:43.288Z,9.78
2018-08-04T07:02:11.613Z,5.33
2018-08-04T07:04:39.948Z,2.55
2018-08-04T07:07:08.616Z,4.28
2018-08-04T07:09:37.010Z,5.12
2018-08-04T07:12:05.654Z,3.92
2018-08-04T07:14:34.021Z,4.92
2018-08-04T07:17:02.464Z,4.42
2018-08-04T07:19:30.833Z,2.50
2018-08-04T07:21:59.161Z,4.87
2018-08-04T07:24:27.490Z,2.65
2018-08-04T07:26:55.852Z,3.75
2018-08-04T07:29:24.307Z,3.17
2018-08-04T07:31:52.639Z,3.42
2018-08-04T07:34:21.010Z,3.15
2018-08-04T07:36:49.331Z,5.40
2018-08-04T07:39:17.763Z,2.30
2018-08-04T07:41:46.113Z,5.62
2018-08-04T07:44:14.494Z,4.33
2018-08-04T07:46:42.875Z,4.47
2018-08-04T07:49:11.396Z,4.22
2018-08-04T07:51:39.680Z,4.87
2018-08-04T07:54:08.145Z,6.45
2018-08-04T07:56:36.520Z,6.83
2018-08-04T07:59:04.898Z,7.70
2018-08-04T08:01:33.276Z,9.13
2018-08-04T08:04:01.634Z,9.60
2018-08-04T08:06:29.960Z,10.35
2018-08-04T08:08:58.342Z,11.75
2018-08-04T08:11:26.769Z,12.70
2018-08-04T08:13:55.193Z,13.40
2018-08-04T08:16:23.520Z,14.70
2018-08-04T08:18:51.876Z,16.60
2018-08-04T08:21:20.204Z,18.17
2018-08-04T08:23:48.527Z,20.10
2018-08-04T08:26:16.843Z,19.85
2018-08-04T08:28:45.186Z,21.85
2018-08-04T08:31:13.596Z,24.07
2018-08-04T08:33:41.907Z,24.02
2018-08-04T08:36:10.758Z,27.20
2018-08-04T08:38:39.092Z,26.93
2018-08-04T08:41:07.432Z,28.83
2018-08-04T08:43:35.772Z,30.23
2018-08-04T08:46:04.092Z,31.12
2018-08-04T08:48:32.424Z,34.20
2018-08-04T08:51:00.763Z,33.28
2018-08-04T08:53:29.332Z,33.92
2018-08-04T08:55:57.532Z,34.70
2018-08-04T08:58:25.897Z,32.73
2018-08-04T09:00:54.216Z,33.58
2018-08-04T09:03:22.586Z,34.95
2018-08-04T09:05:50.904Z,35.55
2018-08-04T09:08:19.231Z,33.42
2018-08-04T09:10:47.547Z,33.98
2018-08-04T09:13:15.902Z,35.17
2018-08-04T09:15:44.279Z,33.00
2018-08-04T09:18:12.591Z,35.08
2018-08-04T09:20:40.911Z,33.53
2018-08-04T09:23:09.350Z,32.95
2018-08-04T09:25:37.650Z,30.15
2018-08-04T09:28:06.004Z,32.58
2018-08-04T09:30:34.376Z,32.50
2018-08-04T09:33:02.711Z,35.63
2018-08-04T09:35:31.053Z,34.63
2018-08-04T09:37:59.386Z,36.17
2018-08-04T09:40:27.744Z,43.78
2018-08-04T09:42:56.089Z,39.90
2018-08-04T09:45:24.428Z,40.98
2018-08-04T09:47:52.797Z,42.00
2018-08-04T09:50:21.151Z,42.62
2018-08-04T09:52:49.483Z,41.83
2018-08-04T09:55:17.818Z,37.38
2018-08-04T09:57:46.142Z,37.35
2018-08-04T10:00:19.767Z,34.60
2018-08-04T10:02:48.120Z,31.20
2018-08-04T10:05:16.566Z,32.85
2018-08-04T10:07:44.872Z,34.00
2018-08-04T10:10:13.199Z,32.38
2018-08-04T10:12:41.535Z,28.70
2018-08-04T10:15:11.136Z,25.52
2018-08-04T10:17:39.909Z,24.80
2018-08-04T10:20:09.880Z,19.87
2018-08-04T10:22:38.537Z,16.20
2018-08-04T10:25:07.612Z,15.30
2018-08-04T10:27:36.052Z,12.28
2018-08-04T10:30:06.913Z,11.22
2018-08-04T10:32:35.527Z,7.80
2018-08-04T10:35:04.180Z,4.87
2018-08-04T10:37:32.592Z,3.00
2018-08-04T10:40:01.658Z,2.20
2018-08-04T10:42:30.010Z,2.17
2018-08-04T10:44:58.348Z,2.12
2018-08-04T10:47:26.693Z,1.70
2018-08-04T10:49:55.049Z,1.32
2018-08-04T10:52:24.367Z,1.00
2018-08-04T10:54:52.764Z,2.58
2018-08-04T10:57:21.350Z,3.37
2018-08-04T10:59:53.521Z,5.53
2018-08-04T11:02:23.128Z,5.62
2018-08-04T11:04:51.563Z,7.83
2018-08-04T11:07:20.016Z,5.33
2018-08-04T11:09:48.482Z,4.90
2018-08-04T11:12:16.804Z,8.00
2018-08-04T11:14:45.131Z,4.70
2018-08-04T11:17:13.485Z,4.67
2018-08-04T11:19:41.898Z,3.98
2018-08-04T11:22:10.216Z,4.87
2018-08-04T11:24:38.586Z,3.20
2018-08-04T11:27:06.917Z,4.95
2018-08-04T11:29:35.231Z,4.03
2018-08-04T11:32:03.555Z,6.12
2018-08-04T11:34:31.856Z,4.37
2018-08-04T11:37:00.195Z,5.70
2018-08-04T11:39:28.628Z,4.30
2018-08-04T11:41:56.955Z,4.45
2018-08-04T11:44:25.255Z,4.53
2018-08-04T11:46:53.789Z,7.65
2018-08-04T11:49:22.396Z,3.12
2018-08-04T11:51:51.503Z,4.12
2018-08-04T11:54:20.050Z,5.72
2018-08-04T11:56:48.556Z,4.83
2018-08-04T11:59:16.926Z,5.35
2018-08-04T12:01:45.331Z,3.55
2018-08-04T12:04:13.680Z,3.55
2018-08-04T12:06:42.164Z,4.03
2018-08-04T12:10:39.756Z,5.62
2018-08-04T12:13:08.080Z,11.33
2018-08-04T12:15:37.338Z,59.75
2018-08-04T12:18:05.962Z,37.67
2018-08-04T12:20:34.302Z,35.10
2018-08-04T12:23:02.627Z,32.98
2018-08-04T12:25:31.097Z,28.90
2018-08-04T12:27:59.384Z,17.87
2018-08-04T12:30:27.717Z,21.40
2018-08-04T12:32:56.914Z,8.38
2018-08-04T12:35:25.324Z,4.05
2018-08-04T12:37:53.717Z,6.40
2018-08-04T12:40:22.075Z,7.58
2018-08-04T12:42:50.413Z,6.58
2018-08-04T12:45:18.771Z,7.40
2018-08-04T12:47:47.121Z,4.22
2018-08-04T12:50:15.948Z,6.20
2018-08-04T12:52:44.269Z,6.35
2018-08-04T12:55:12.630Z,6.87
2018-08-04T12:57:40.989Z,5.20
2018-08-04T13:00:09.623Z,6.10
2018-08-04T13:02:38.326Z,3.92
2018-08-04T13:05:07.099Z,7.10
2018-08-04T13:07:35.511Z,4.22
2018-08-04T13:10:03.927Z,5.10
2018-08-04T13:12:32.274Z,6.67
2018-08-04T13:15:00.772Z,5.90
2018-08-04T13:17:29.244Z,4.58
2018-08-04T13:19:57.591Z,6.15
2018-08-04T13:22:25.947Z,3.92
2018-08-04T13:24:54.286Z,5.37
2018-08-04T13:27:22.705Z,3.50
2018-08-04T13:29:51.069Z,4.25
2018-08-04T13:32:19.544Z,6.50
2018-08-04T13:34:47.889Z,3.77
2018-08-04T13:37:16.333Z,6.70
2018-08-04T13:39:44.687Z,5.20
2018-08-04T13:42:13.186Z,4.83
2018-08-04T13:44:41.642Z,4.80
2018-08-04T13:47:10.021Z,4.90
2018-08-04T13:49:38.369Z,11.83
2018-08-04T13:52:06.817Z,5.93
2018-08-04T13:54:35.272Z,6.90
2018-08-04T13:57:03.626Z,6.10
2018-08-04T13:59:32.122Z,4.77
2018-08-04T14:02:01.910Z,6.17
2018-08-04T14:04:30.345Z,4.93
2018-08-04T14:06:58.794Z,5.07
2018-08-04T14:09:27.142Z,8.58
2018-08-04T14:11:55.523Z,7.70
2018-08-04T14:14:23.868Z,6.47
2018-08-04T14:16:52.246Z,4.33
2018-08-04T14:19:20.662Z,5.30
2018-08-04T14:21:49.016Z,7.80
2018-08-04T14:24:17.415Z,6.10
2018-08-04T14:26:46.849Z,4.97
2018-08-04T14:29:15.198Z,5.27
2018-08-04T14:31:43.576Z,5.10
2018-08-04T14:34:11.974Z,6.83
2018-08-04T14:36:40.339Z,4.70
2018-08-04T14:39:11.249Z,5.93
2018-08-04T14:41:39.628Z,4.47
2018-08-04T14:44:08.037Z,5.40
2018-08-04T14:46:36.993Z,6.23
2018-08-04T14:49:05.437Z,6.43
2018-08-04T14:51:33.781Z,7.50
2018-08-04T14:54:02.217Z,4.60
2018-08-04T14:56:30.608Z,7.50
2018-08-04T14:58:58.993Z,9.70
2018-08-04T15:01:27.332Z,6.23
2018-08-04T15:03:55.705Z,7.50
2018-08-04T15:06:24.091Z,5.73
2018-08-04T15:08:52.978Z,7.07
2018-08-04T15:11:21.355Z,4.87
2018-08-04T15:13:49.707Z,7.37
2018-08-04T15:16:18.115Z,6.90
2018-08-04T15:18:46.482Z,5.80
2018-08-04T15:21:14.841Z,7.77
2018-08-04T15:23:43.193Z,6.63
2018-08-04T15:26:11.573Z,7.07
2018-08-04T15:28:39.951Z,6.90
2018-08-04T15:31:08.288Z,6.27
2018-08-04T15:33:36.667Z,5.10
2018-08-04T15:36:05.354Z,7.10
2018-08-04T15:38:33.730Z,8.50
2018-08-04T15:41:02.084Z,5.67
2018-08-04T15:43:30.460Z,10.27
2018-08-04T15:45:58.833Z,7.23
2018-08-04T15:48:27.180Z,11.73
2018-08-04T15:50:55.522Z,8.10
2018-08-04T15:53:23.940Z,8.23
2018-08-04T15:55:53.243Z,9.00
2018-08-04T15:58:21.652Z,5.60
2018-08-04T16:00:50.002Z,7.47
2018-08-04T16:03:18.511Z,7.23
2018-08-04T16:05:46.870Z,8.77
2018-08-04T16:08:15.241Z,7.47
2018-08-04T16:10:43.577Z,6.10
2018-08-04T16:13:11.943Z,6.37
2018-08-04T16:15:40.335Z,7.20
2018-08-04T16:18:08.715Z,7.20
2018-08-04T16:20:37.093Z,9.13
2018-08-04T16:23:05.516Z,6.43
2018-08-04T16:25:33.878Z,7.53
2018-08-04T16:28:02.230Z,7.67
2018-08-04T16:30:30.579Z,8.40
2018-08-04T16:32:58.928Z,8.77
2018-08-04T16:35:27.303Z,6.77
2018-08-04T16:37:55.720Z,7.10
2018-08-04T16:40:24.330Z,6.60
2018-08-04T16:42:52.708Z,7.57
2018-08-04T16:45:21.098Z,6.63
2018-08-04T16:47:49.467Z,9.07
2018-08-04T16:50:17.932Z,8.13
2018-08-04T16:52:46.286Z,10.83
2018-08-04T16:55:14.644Z,9.80
2018-08-04T16:57:43.978Z,5.80
2018-08-04T17:00:12.336Z,7.43
2018-08-04T17:02:40.764Z,6.60
2018-08-04T17:05:09.493Z,6.43
2018-08-04T17:07:38.463Z,6.50
2018-08-04T17:10:06.851Z,7.10
2018-08-04T17:12:35.239Z,5.00
2018-08-04T17:15:03.826Z,5.10
2018-08-04T17:17:32.235Z,4.30
2018-08-04T17:20:00.592Z,6.97
2018-08-04T17:22:28.970Z,4.60
2018-08-04T17:24:57.406Z,4.53
2018-08-04T17:27:25.924Z,7.03
2018-08-04T17:29:54.305Z,6.00
2018-08-04T17:32:22.690Z,8.80
2018-08-04T17:34:51.090Z,8.07
2018-08-04T17:37:19.482Z,4.93
2018-08-04T17:39:47.853Z,5.13
2018-08-04T17:42:16.235Z,6.87
2018-08-04T17:44:44.579Z,5.97
2018-08-04T17:47:12.953Z,4.83
2018-08-04T17:49:41.339Z,4.20
2018-08-04T17:52:09.678Z,7.83
2018-08-04T17:54:38.092Z,3.93
2018-08-04T17:57:06.717Z,4.73
2018-08-04T17:59:35.082Z,6.63
2018-08-04T18:02:03.431Z,5.37
2018-08-04T18:04:31.785Z,5.93
2018-08-04T18:07:00.190Z,7.00
2018-08-04T18:09:28.605Z,9.03
2018-08-04T18:11:56.954Z,5.77
2018-08-04T18:14:25.327Z,5.93
2018-08-04T18:16:53.668Z,5.23
2018-08-04T18:19:22.155Z,5.57
2018-08-04T18:21:50.496Z,5.50
2018-08-04T18:24:18.845Z,4.13
2018-08-04T18:26:47.306Z,4.97
2018-08-04T18:29:15.666Z,5.80
2018-08-04T18:31:44.080Z,3.83
2018-08-04T18:34:12.418Z,4.63
2018-08-04T18:36:40.750Z,5.57
2018-08-04T18:39:09.808Z,6.17
2018-08-04T18:41:38.311Z,3.23
2018-08-04T18:44:06.656Z,4.10
2018-08-04T18:46:35.034Z,8.87
2018-08-04T18:49:03.352Z,4.27
2018-08-04T18:51:31.675Z,6.23
2018-08-04T18:54:00.004Z,6.90
2018-08-04T18:56:28.332Z,10.20
2018-08-04T18:58:56.654Z,4.17
2018-08-04T19:01:25.005Z,4.93
2018-08-04T19:03:53.323Z,4.17
2018-08-04T19:06:21.642Z,6.17
2018-08-04T19:08:50.052Z,4.77
2018-08-04T19:11:18.372Z,4.20
2018-08-04T19:13:46.688Z,5.47
2018-08-04T19:16:15.061Z,3.57
2018-08-04T19:18:43.407Z,4.60
2018-08-04T19:21:11.784Z,5.70
2018-08-04T19:23:40.115Z,4.57
2018-08-04T19:26:08.438Z,5.43
2018-08-04T19:28:36.826Z,5.37
2018-08-04T19:31:05.252Z,4.87
2018-08-04T19:33:33.588Z,4.83
2018-08-04T19:36:01.936Z,5.50
2018-08-04T19:38:30.276Z,5.70
2018-08-04T19:40:58.620Z,5.03
2018-08-04T19:43:26.958Z,7.50
2018-08-04T19:45:55.353Z,6.63
2018-08-04T19:48:23.763Z,8.07
2018-08-04T19:50:52.419Z,7.53
2018-08-04T19:53:20.795Z,8.70
2018-08-04T19:55:49.114Z,7.97
2018-08-04T19:58:17.443Z,10.00
2018-08-04T20:00:45.789Z,5.50
2018-08-04T20:03:14.102Z,5.93
2018-08-04T20:05:42.435Z,7.00
2018-08-04T20:08:10.809Z,6.13
2018-08-04T20:10:39.206Z,7.07
2018-08-04T20:13:07.534Z,8.07
2018-08-04T20:15:35.888Z,6.47
2018-08-04T20:18:04.268Z,7.30
2018-08-04T20:20:33.157Z,4.70
2018-08-04T20:23:01.509Z,8.13
2018-08-04T20:25:29.878Z,5.90
2018-08-04T20:27:58.222Z,5.17
2018-08-04T20:30:26.597Z,3.93
2018-08-04T20:32:55.046Z,5.47
2018-08-04T20:35:23.407Z,6.67
2018-08-04T20:37:51.733Z,5.63
2018-08-04T20:40:20.231Z,4.37
2018-08-04T20:42:48.563Z,7.47
2018-08-04T20:45:16.902Z,5.83
2018-08-04T20:47:45.221Z,5.87
2018-08-04T20:50:13.603Z,4.87
2018-08-04T20:52:41.980Z,4.90
2018-08-04T20:55:10.363Z,4.63
2018-08-04T20:57:38.814Z,6.97
2018-08-04T21:00:07.219Z,4.37
2018-08-04T21:02:35.596Z,5.27
2018-08-04T21:05:04.051Z,5.73
2018-08-04T21:07:32.391Z,6.57
2018-08-04T21:10:00.721Z,4.73
2018-08-04T21:12:29.049Z,7.20
2018-08-04T21:14:57.420Z,4.40
2018-08-04T21:17:25.800Z,6.70
2018-08-04T21:19:54.155Z,4.37
2018-08-04T21:22:22.480Z,4.53
2018-08-04T21:24:50.799Z,7.23
2018-08-04T21:27:19.106Z,5.60
2018-08-04T21:29:47.434Z,7.30
2018-08-04T21:32:15.751Z,4.03
2018-08-04T21:34:44.089Z,5.20
2018-08-04T21:37:12.465Z,7.33
2018-08-04T21:39:40.799Z,3.80
2018-08-04T21:42:09.106Z,8.37
2018-08-04T21:44:37.539Z,6.87
2018-08-04T21:47:05.913Z,4.40
2018-08-04T21:49:34.311Z,4.00
2018-08-04T21:52:02.639Z,5.17
2018-08-04T21:54:30.991Z,4.93
2018-08-04T21:56:59.428Z,4.83
2018-08-04T21:59:27.755Z,5.23
2018-08-04T22:01:57.267Z,6.40
2018-08-04T22:04:26.197Z,7.37
2018-08-04T22:08:04.717Z,4.60
2018-08-04T22:10:33.164Z,5.23
2018-08-04T22:13:01.675Z,6.43
2018-08-04T22:15:30.026Z,5.27
2018-08-04T22:17:58.385Z,5.23
2018-08-04T22:20:27.338Z,5.73
2018-08-04T22:22:55.653Z,7.60
2018-08-04T22:25:25.333Z,4.07
2018-08-04T22:27:54.031Z,4.30
2018-08-04T22:30:22.910Z,3.80
2018-08-04T22:32:51.694Z,6.50
2018-08-04T22:35:20.329Z,5.90
2018-08-04T22:37:48.802Z,4.37
2018-08-04T22:40:18.180Z,4.10
2018-08-04T22:42:46.633Z,4.67
2018-08-04T22:45:59.246Z,3.87
2018-08-04T22:48:27.708Z,4.33
2018-08-04T22:50:56.188Z,3.90
2018-08-04T22:53:24.740Z,8.70
2018-08-04T22:55:53.389Z,3.93
2018-08-04T22:58:21.964Z,3.40
2018-08-04T23:00:50.372Z,3.77
2018-08-04T23:03:18.773Z,4.70
2018-08-04T23:05:47.196Z,4.67
2018-08-04T23:08:15.688Z,4.43
2018-08-04T23:10:44.616Z,5.43
2018-08-04T23:13:13.465Z,4.43
2018-08-04T23:15:41.807Z,2.77
2018-08-04T23:18:10.430Z,3.30
2018-08-04T23:20:38.912Z,4.83
2018-08-04T23:23:08.142Z,5.97
2018-08-04T23:25:36.636Z,3.80
2018-08-04T23:28:04.972Z,5.70
2018-08-04T23:30:33.343Z,4.93
2018-08-04T23:33:01.691Z,5.40
2018-08-04T23:35:30.084Z,3.50
2018-08-04T23:37:58.417Z,5.57
2018-08-04T23:40:26.890Z,4.40
2018-08-04T23:42:55.225Z,5.47
2018-08-04T23:45:23.582Z,3.73
2018-08-04T23:47:52.009Z,3.97
2018-08-04T23:50:20.374Z,5.43
2018-08-04T23:52:48.659Z,5.67
2018-08-04T23:55:17.016Z,8.77
2018-08-04T23:57:45.495Z,4.00
